createdAt,value
2023-05-15T00:00:12.064Z,22.97
2023-05-15T00:01:13.070Z,22.97
2023-05-15T00:02:13.139Z,22.98
2023-05-15T00:03:12.188Z,22.95
2023-05-15T00:04:12.121Z,22.95
2023-05-15T00:05:12.122Z,22.95
2023-05-15T00:06:13.080Z,22.95
2023-05-15T00:07:12.074Z,22.97
2023-05-15T00:08:13.107Z,22.97
2023-05-15T00:09:13.140Z,22.97
2023-05-15T00:10:13.112Z,22.98
2023-05-15T00:11:13.113Z,22.94
2023-05-15T00:12:13.111Z,22.94
2023-05-15T00:13:12.132Z,22.94
2023-05-15T00:14:13.196Z,22.95
2023-05-15T00:15:12.153Z,22.95
2023-05-15T00:16:13.227Z,22.94
2023-05-15T00:17:12.172Z,22.95
2023-05-15T00:18:13.232Z,22.95
2023-05-15T00:19:12.286Z,22.94
2023-05-15T00:20:12.205Z,22.94
2023-05-15T00:21:12.240Z,22.94
2023-05-15T00:22:12.221Z,22.97
2023-05-15T00:23:12.244Z,22.95
2023-05-15T00:24:13.287Z,22.94
2023-05-15T00:25:13.267Z,22.97
2023-05-15T00:26:13.281Z,22.98
2023-05-15T00:27:13.283Z,22.98
2023-05-15T00:28:12.293Z,22.97
2023-05-15T00:29:12.294Z,22.93
2023-05-15T00:30:13.339Z,22.93
2023-05-15T00:31:12.346Z,22.93
2023-05-15T00:32:12.329Z,22.94
2023-05-15T00:33:13.364Z,22.93
2023-05-15T00:34:12.340Z,22.94
2023-05-15T00:35:13.368Z,22.95
2023-05-15T00:36:12.380Z,22.94
2023-05-15T00:37:13.405Z,22.93
2023-05-15T00:38:13.408Z,22.93
2023-05-15T00:39:12.408Z,22.94
2023-05-15T00:40:13.442Z,22.94
2023-05-15T00:41:12.430Z,22.93
2023-05-15T00:42:13.469Z,22.97
2023-05-15T00:43:13.467Z,22.94
2023-05-15T00:44:12.478Z,22.93
2023-05-15T00:45:12.481Z,22.95
2023-05-15T00:46:12.500Z,22.95
2023-05-15T00:47:12.591Z,22.94
2023-05-15T00:48:12.512Z,22.95
2023-05-15T00:49:13.639Z,22.97
2023-05-15T00:50:13.569Z,22.97
2023-05-15T00:51:12.556Z,22.94
2023-05-15T00:52:13.560Z,22.93
2023-05-15T00:53:12.752Z,22.93
2023-05-15T00:54:13.661Z,22.94
2023-05-15T00:55:12.599Z,22.95
2023-05-15T00:56:13.641Z,22.95
2023-05-15T00:57:12.631Z,22.93
2023-05-15T00:58:12.652Z,22.97
2023-05-15T00:59:12.655Z,22.95
2023-05-15T01:00:13.684Z,22.93
2023-05-15T01:01:12.765Z,22.94
2023-05-15T01:02:12.729Z,22.93
2023-05-15T01:03:13.774Z,22.93
2023-05-15T01:04:13.745Z,22.93
2023-05-15T01:05:13.746Z,22.93
2023-05-15T01:06:13.756Z,22.94
2023-05-15T01:07:13.773Z,22.91
2023-05-15T01:08:13.785Z,22.94
2023-05-15T01:09:12.790Z,22.93
2023-05-15T01:10:13.793Z,22.91
2023-05-15T01:11:13.814Z,22.94
2023-05-15T01:12:12.853Z,22.94
2023-05-15T01:13:13.838Z,22.93
2023-05-15T01:14:13.872Z,22.95
2023-05-15T01:15:13.886Z,22.95
2023-05-15T01:16:12.915Z,22.93
2023-05-15T01:17:13.951Z,22.94
2023-05-15T01:18:13.065Z,22.88
2023-05-15T01:19:14.011Z,22.88
2023-05-15T01:20:13.980Z,22.93
2023-05-15T01:21:13.003Z,22.91
2023-05-15T01:22:14.004Z,22.93
2023-05-15T01:23:14.039Z,22.88
2023-05-15T01:24:14.037Z,22.91
2023-05-15T01:25:13.048Z,22.90
2023-05-15T01:26:13.092Z,22.91
2023-05-15T01:27:14.102Z,22.87
2023-05-15T01:28:14.131Z,22.90
2023-05-15T01:29:14.127Z,22.88
2023-05-15T01:30:13.160Z,22.91
2023-05-15T01:31:14.167Z,22.90
2023-05-15T01:32:13.247Z,22.93
2023-05-15T01:33:13.228Z,22.88
2023-05-15T01:34:13.211Z,22.91
2023-05-15T01:35:14.215Z,22.90
2023-05-15T01:36:14.242Z,22.88
2023-05-15T01:37:13.252Z,22.91
2023-05-15T01:38:14.265Z,22.91
2023-05-15T01:39:13.297Z,22.91
2023-05-15T01:40:14.343Z,22.90
2023-05-15T01:41:14.313Z,22.91
2023-05-15T01:42:13.351Z,22.88
2023-05-15T01:43:13.344Z,22.90
2023-05-15T01:44:14.427Z,22.90
2023-05-15T01:45:14.370Z,22.93
2023-05-15T01:46:13.486Z,22.91
2023-05-15T01:47:14.409Z,22.91
2023-05-15T01:48:13.435Z,22.90
2023-05-15T01:49:14.451Z,22.88
2023-05-15T01:50:14.447Z,22.90
2023-05-15T01:51:14.476Z,22.90
2023-05-15T01:52:13.500Z,22.88
2023-05-15T01:53:13.480Z,22.90
2023-05-15T01:54:14.505Z,22.91
2023-05-15T01:55:14.493Z,22.91
2023-05-15T01:56:13.492Z,22.90
2023-05-15T01:57:14.493Z,22.90
2023-05-15T01:58:14.518Z,22.88
2023-05-15T01:59:14.514Z,22.87
2023-05-15T02:00:14.653Z,22.90
2023-05-15T02:01:13.550Z,22.88
2023-05-15T02:02:14.532Z,22.90
2023-05-15T02:03:14.643Z,22.87
2023-05-15T02:04:13.568Z,22.88
2023-05-15T02:05:14.558Z,22.87
2023-05-15T02:06:14.574Z,22.87
2023-05-15T02:07:13.595Z,22.91
2023-05-15T02:08:14.661Z,22.88
2023-05-15T02:09:14.677Z,22.88
2023-05-15T02:10:13.653Z,22.87
2023-05-15T02:11:14.662Z,22.88
2023-05-15T02:12:13.664Z,22.90
2023-05-15T02:13:14.707Z,22.87
2023-05-15T02:14:14.714Z,22.87
2023-05-15T02:15:14.724Z,22.88
2023-05-15T02:16:13.805Z,22.85
2023-05-15T02:17:13.786Z,22.88
2023-05-15T02:18:14.779Z,22.85
2023-05-15T02:19:14.816Z,22.87
2023-05-15T02:20:14.807Z,22.88
2023-05-15T02:21:14.924Z,22.88
2023-05-15T02:22:14.832Z,22.83
2023-05-15T02:23:13.862Z,22.84
2023-05-15T02:24:13.880Z,22.83
2023-05-15T02:25:13.889Z,22.85
2023-05-15T02:26:14.957Z,22.81
2023-05-15T02:27:13.940Z,22.81
2023-05-15T02:28:13.955Z,22.79
2023-05-15T02:29:13.978Z,22.83
2023-05-15T02:30:15.005Z,22.83
2023-05-15T02:31:14.100Z,22.87
2023-05-15T02:32:14.135Z,22.87
2023-05-15T02:33:15.079Z,22.88
2023-05-15T02:34:14.088Z,22.87
2023-05-15T02:35:14.103Z,22.85
2023-05-15T02:36:14.124Z,22.88
2023-05-15T02:37:14.151Z,22.85
2023-05-15T02:38:15.173Z,22.85
2023-05-15T02:39:15.207Z,22.88
2023-05-15T02:40:14.213Z,22.84
2023-05-15T02:41:14.217Z,22.83
2023-05-15T02:42:14.261Z,22.84
2023-05-15T02:43:14.256Z,22.85
2023-05-15T02:44:15.305Z,22.84
2023-05-15T02:45:15.333Z,22.81
2023-05-15T02:46:15.447Z,22.83
2023-05-15T02:47:14.325Z,22.84
2023-05-15T02:48:14.378Z,22.83
2023-05-15T02:49:15.369Z,22.87
2023-05-15T02:50:15.388Z,22.84
2023-05-15T02:51:15.472Z,22.84
2023-05-15T02:52:14.420Z,22.87
2023-05-15T02:53:14.500Z,22.84
2023-05-15T02:54:15.460Z,22.83
2023-05-15T02:55:14.484Z,22.84
2023-05-15T02:56:15.503Z,22.81
2023-05-15T02:57:15.535Z,22.83
2023-05-15T02:58:14.526Z,22.85
2023-05-15T02:59:14.546Z,22.85
2023-05-15T03:00:14.565Z,22.79
2023-05-15T03:01:15.653Z,22.85
2023-05-15T03:02:15.632Z,22.81
2023-05-15T03:03:14.605Z,22.84
2023-05-15T03:04:14.726Z,22.87
2023-05-15T03:05:14.649Z,22.81
2023-05-15T03:06:15.677Z,22.81
2023-05-15T03:07:14.679Z,22.81
2023-05-15T03:08:15.704Z,22.84
2023-05-15T03:09:15.727Z,22.83
2023-05-15T03:10:15.761Z,22.85
2023-05-15T03:11:14.772Z,22.84
2023-05-15T03:12:14.791Z,22.83
2023-05-15T03:13:15.806Z,22.84
2023-05-15T03:14:15.832Z,22.83
2023-05-15T03:15:15.837Z,22.84
2023-05-15T03:16:14.866Z,22.83
2023-05-15T03:17:16.142Z,22.81
2023-05-15T03:18:18.623Z,22.83
2023-05-15T03:19:15.941Z,22.81
2023-05-15T03:20:14.895Z,22.84
2023-05-15T03:21:15.878Z,22.83
2023-05-15T03:22:15.861Z,22.81
2023-05-15T03:23:15.871Z,22.83
2023-05-15T03:24:14.859Z,22.83
2023-05-15T03:25:14.843Z,22.84
2023-05-15T03:26:14.860Z,22.79
2023-05-15T03:27:15.841Z,22.81
2023-05-15T03:28:14.847Z,22.83
2023-05-15T03:29:15.832Z,22.83
2023-05-15T03:30:15.823Z,22.83
2023-05-15T03:31:15.816Z,22.83
2023-05-15T03:32:15.822Z,22.81
2023-05-15T03:33:15.809Z,22.79
2023-05-15T03:34:15.780Z,22.84
2023-05-15T03:35:15.781Z,22.83
2023-05-15T03:36:15.818Z,22.83
2023-05-15T03:37:14.772Z,22.81
2023-05-15T03:38:15.764Z,22.84
2023-05-15T03:39:15.782Z,22.79
2023-05-15T03:40:15.745Z,22.81
2023-05-15T03:41:14.745Z,22.83
2023-05-15T03:42:14.740Z,22.79
2023-05-15T03:43:15.736Z,22.83
2023-05-15T03:44:15.725Z,22.81
2023-05-15T03:45:14.734Z,22.78
2023-05-15T03:46:15.824Z,22.78
2023-05-15T03:47:14.699Z,22.79
2023-05-15T03:48:15.694Z,22.79
2023-05-15T03:49:14.697Z,22.79
2023-05-15T03:50:15.700Z,22.81
2023-05-15T03:51:14.699Z,22.79
2023-05-15T03:52:15.706Z,22.81
2023-05-15T03:53:15.669Z,22.77
2023-05-15T03:54:14.681Z,22.79
2023-05-15T03:55:15.676Z,22.78
2023-05-15T03:56:15.668Z,22.77
2023-05-15T03:57:14.656Z,22.78
2023-05-15T03:58:14.641Z,22.81
2023-05-15T03:59:14.639Z,22.78
2023-05-15T04:00:17.118Z,22.78
2023-05-15T04:01:14.654Z,22.79
2023-05-15T04:02:14.656Z,22.77
2023-05-15T04:03:15.658Z,22.77
2023-05-15T04:04:15.612Z,22.78
2023-05-15T04:05:14.614Z,22.78
2023-05-15T04:06:15.590Z,22.78
2023-05-15T04:07:15.588Z,22.77
2023-05-15T04:08:15.609Z,22.79
2023-05-15T04:09:14.574Z,22.79
2023-05-15T04:10:14.552Z,22.77
2023-05-15T04:11:15.555Z,22.78
2023-05-15T04:12:15.554Z,22.78
2023-05-15T04:13:14.542Z,22.79
2023-05-15T04:14:14.558Z,22.77
2023-05-15T04:15:15.524Z,22.78
2023-05-15T04:16:15.541Z,22.75
2023-05-15T04:17:14.522Z,22.75
2023-05-15T04:18:15.518Z,22.77
2023-05-15T04:19:14.596Z,22.77
2023-05-15T04:20:14.489Z,22.77
2023-05-15T04:21:14.491Z,22.77
2023-05-15T04:22:14.492Z,22.77
2023-05-15T04:23:15.469Z,22.75
2023-05-15T04:24:15.505Z,22.77
2023-05-15T04:25:14.466Z,22.75
2023-05-15T04:26:14.444Z,22.78
2023-05-15T04:27:15.467Z,22.74
2023-05-15T04:28:15.454Z,22.78
2023-05-15T04:29:14.455Z,22.74
2023-05-15T04:30:14.465Z,22.74
2023-05-15T04:31:15.428Z,22.72
2023-05-15T04:32:15.469Z,22.74
2023-05-15T04:33:14.607Z,22.75
2023-05-15T04:34:15.416Z,22.78
2023-05-15T04:35:15.453Z,22.75
2023-05-15T04:36:15.407Z,22.77
2023-05-15T04:37:14.413Z,22.72
2023-05-15T04:38:14.440Z,22.77
2023-05-15T04:39:15.475Z,22.75
2023-05-15T04:40:15.520Z,22.74
2023-05-15T04:41:15.603Z,22.75
2023-05-15T04:42:15.539Z,22.78
2023-05-15T04:43:15.578Z,22.78
2023-05-15T04:44:14.596Z,22.75
2023-05-15T04:45:14.628Z,22.77
2023-05-15T04:46:14.683Z,22.72
2023-05-15T04:47:14.693Z,22.75
2023-05-15T04:48:14.703Z,22.78
2023-05-15T04:49:15.736Z,22.75
2023-05-15T04:50:14.737Z,22.77
2023-05-15T04:51:14.775Z,22.78
2023-05-15T04:52:15.807Z,22.75
2023-05-15T04:53:14.874Z,22.75
2023-05-15T04:54:15.866Z,22.77
2023-05-15T04:55:14.882Z,22.78
2023-05-15T04:56:14.949Z,22.75
2023-05-15T04:57:14.930Z,22.75
2023-05-15T04:58:14.954Z,22.77
2023-05-15T04:59:14.985Z,22.74
2023-05-15T05:00:15.012Z,22.77
2023-05-15T05:01:16.042Z,22.78
2023-05-15T05:02:16.075Z,22.77
2023-05-15T05:03:15.212Z,22.74
2023-05-15T05:04:16.193Z,22.75
2023-05-15T05:05:15.188Z,22.74
2023-05-15T05:06:16.198Z,22.77
2023-05-15T05:07:15.223Z,22.75
2023-05-15T05:08:16.236Z,22.78
2023-05-15T05:09:15.270Z,22.74
2023-05-15T05:10:16.295Z,22.75
2023-05-15T05:11:15.336Z,22.77
2023-05-15T05:12:16.363Z,22.78
2023-05-15T05:13:15.383Z,22.74
2023-05-15T05:14:15.398Z,22.75
2023-05-15T05:15:16.474Z,22.75
2023-05-15T05:16:15.471Z,22.78
2023-05-15T05:17:15.488Z,22.77
2023-05-15T05:18:15.511Z,22.75
2023-05-15T05:19:16.602Z,22.75
2023-05-15T05:20:15.563Z,22.74
2023-05-15T05:21:15.598Z,22.77
2023-05-15T05:22:15.616Z,22.75
2023-05-15T05:23:15.650Z,22.77
2023-05-15T05:24:15.688Z,22.78
2023-05-15T05:25:16.724Z,22.78
2023-05-15T05:26:15.741Z,22.77
2023-05-15T05:27:15.757Z,22.77
2023-05-15T05:28:16.809Z,22.75
2023-05-15T05:29:16.804Z,22.75
2023-05-15T05:30:16.845Z,22.75
2023-05-15T05:31:16.941Z,22.74
2023-05-15T05:32:16.902Z,22.78
2023-05-15T05:33:15.922Z,22.74
2023-05-15T05:34:16.962Z,22.77
2023-05-15T05:35:15.989Z,22.75
2023-05-15T05:36:17.069Z,22.77
2023-05-15T05:37:16.034Z,22.74
2023-05-15T05:38:17.075Z,22.72
2023-05-15T05:39:17.135Z,22.75
2023-05-15T05:40:17.140Z,22.74
2023-05-15T05:41:17.164Z,22.75
2023-05-15T05:42:17.203Z,22.75
2023-05-15T05:43:17.228Z,22.74
2023-05-15T05:44:17.285Z,22.75
2023-05-15T05:45:17.291Z,22.75
2023-05-15T05:46:17.379Z,22.77
2023-05-15T05:47:17.440Z,22.75
2023-05-15T05:48:17.396Z,22.74
2023-05-15T05:49:17.440Z,22.75
2023-05-15T05:50:16.483Z,22.74
2023-05-15T05:51:16.474Z,22.78
2023-05-15T05:52:17.501Z,22.75
2023-05-15T05:53:17.543Z,22.77
2023-05-15T05:54:17.575Z,22.83
2023-05-15T05:55:16.599Z,22.81
2023-05-15T05:56:17.656Z,22.81
2023-05-15T05:57:17.698Z,22.81
2023-05-15T05:58:24.820Z,22.78
2023-05-15T05:59:17.721Z,22.78
2023-05-15T06:00:16.749Z,22.79
2023-05-15T06:01:17.723Z,22.78
2023-05-15T06:02:16.775Z,22.79
2023-05-15T06:03:17.789Z,22.90
2023-05-15T06:04:18.401Z,22.95
2023-05-15T06:05:16.687Z,23.08
2023-05-15T06:06:17.658Z,23.15
2023-05-15T06:07:16.661Z,23.02
2023-05-15T06:08:17.673Z,23.23
2023-05-15T06:09:17.653Z,23.26
2023-05-15T06:10:17.626Z,23.30
2023-05-15T06:11:17.644Z,23.38
2023-05-15T06:12:17.625Z,23.48
2023-05-15T06:13:17.613Z,23.49
2023-05-15T06:14:18.948Z,23.54
2023-05-15T06:15:17.599Z,23.57
2023-05-15T06:16:17.756Z,23.57
2023-05-15T06:17:17.629Z,23.61
2023-05-15T06:18:17.566Z,23.61
2023-05-15T06:19:16.604Z,23.63
2023-05-15T06:20:17.563Z,23.66
2023-05-15T06:21:17.563Z,23.70
2023-05-15T06:22:17.550Z,23.71
2023-05-15T06:23:16.534Z,23.73
2023-05-15T06:24:17.536Z,23.66
2023-05-15T06:25:17.537Z,23.70
2023-05-15T06:26:17.534Z,23.76
2023-05-15T06:27:17.517Z,23.80
2023-05-15T06:28:17.496Z,23.78
2023-05-15T06:29:16.507Z,23.76
2023-05-15T06:30:16.492Z,23.84
2023-05-15T06:31:16.516Z,23.84
2023-05-15T06:32:17.606Z,23.84
2023-05-15T06:33:17.519Z,23.85
2023-05-15T06:34:16.462Z,23.84
2023-05-15T06:35:17.455Z,23.87
2023-05-15T06:36:17.465Z,23.85
2023-05-15T06:37:17.461Z,23.87
2023-05-15T06:38:17.434Z,23.78
2023-05-15T06:39:17.454Z,23.66
2023-05-15T06:40:16.431Z,23.80
2023-05-15T06:41:17.426Z,23.85
2023-05-15T06:42:17.413Z,23.91
2023-05-15T06:43:17.419Z,23.93
2023-05-15T06:44:17.399Z,23.95
2023-05-15T06:45:17.440Z,24.00
2023-05-15T06:46:16.495Z,24.03
2023-05-15T06:47:17.462Z,24.04
2023-05-15T06:48:17.601Z,24.04
2023-05-15T06:49:17.471Z,24.04
2023-05-15T06:50:17.478Z,24.03
2023-05-15T06:51:17.501Z,24.00
2023-05-15T06:52:17.530Z,24.04
2023-05-15T06:53:17.591Z,24.07
2023-05-15T06:54:18.021Z,24.05
2023-05-15T06:55:17.571Z,24.03
2023-05-15T06:56:17.578Z,24.01
2023-05-15T06:57:17.582Z,24.05
2023-05-15T06:58:16.596Z,24.05
2023-05-15T06:59:17.601Z,24.08
2023-05-15T07:00:17.615Z,24.09
2023-05-15T07:01:17.651Z,24.08
2023-05-15T07:02:17.658Z,24.09
2023-05-15T07:03:17.621Z,24.07
2023-05-15T07:04:16.855Z,24.09
2023-05-15T07:05:17.630Z,24.08
2023-05-15T07:06:16.668Z,24.15
2023-05-15T07:07:17.647Z,24.12
2023-05-15T07:08:17.654Z,24.12
2023-05-15T07:09:16.667Z,24.11
2023-05-15T07:10:17.707Z,24.09
2023-05-15T07:11:17.667Z,24.12
2023-05-15T07:12:16.672Z,24.15
2023-05-15T07:13:16.671Z,24.12
2023-05-15T07:14:17.725Z,24.12
2023-05-15T07:15:17.712Z,24.11
2023-05-15T07:16:17.703Z,24.12
2023-05-15T07:17:17.779Z,24.16
2023-05-15T07:18:16.740Z,24.11
2023-05-15T07:19:16.855Z,24.12
2023-05-15T07:20:17.825Z,24.14
2023-05-15T07:21:16.713Z,24.12
2023-05-15T07:22:16.745Z,24.11
2023-05-15T07:23:17.744Z,24.12
2023-05-15T07:24:16.740Z,24.12
2023-05-15T07:25:17.764Z,24.14
2023-05-15T07:26:27.532Z,24.12
2023-05-15T07:27:17.730Z,24.11
2023-05-15T07:28:17.741Z,24.11
2023-05-15T07:29:17.718Z,24.04
2023-05-15T07:30:17.722Z,24.08
2023-05-15T07:31:16.747Z,24.12
2023-05-15T07:32:16.706Z,24.08
2023-05-15T07:33:16.705Z,24.05
2023-05-15T07:34:16.689Z,24.07
2023-05-15T07:35:16.686Z,24.12
2023-05-15T07:36:17.893Z,24.19
2023-05-15T07:37:17.663Z,24.09
2023-05-15T07:38:16.715Z,24.19
2023-05-15T07:39:17.691Z,24.18
2023-05-15T07:40:17.654Z,24.12
2023-05-15T07:41:16.637Z,24.14
2023-05-15T07:42:16.655Z,24.03
2023-05-15T07:43:16.650Z,24.09
2023-05-15T07:44:16.614Z,24.23
2023-05-15T07:45:16.660Z,24.25
2023-05-15T07:46:16.682Z,24.29
2023-05-15T07:47:17.630Z,24.28
2023-05-15T07:48:17.620Z,24.25
2023-05-15T07:49:16.582Z,24.19
2023-05-15T07:50:18.049Z,24.15
2023-05-15T07:51:17.569Z,24.05
2023-05-15T07:52:17.584Z,23.98
2023-05-15T07:53:17.560Z,23.91
2023-05-15T07:54:17.539Z,23.88
2023-05-15T07:55:16.566Z,23.85
2023-05-15T07:56:17.530Z,23.81
2023-05-15T07:57:17.518Z,23.77
2023-05-15T07:58:17.514Z,23.71
2023-05-15T07:59:17.515Z,23.71
2023-05-15T08:00:17.525Z,23.69
2023-05-15T08:01:17.486Z,23.64
2023-05-15T08:02:17.533Z,23.64
2023-05-15T08:03:16.649Z,23.60
2023-05-15T08:04:17.523Z,23.61
2023-05-15T08:05:16.484Z,23.60
2023-05-15T08:06:17.465Z,23.56
2023-05-15T08:07:17.456Z,23.56
2023-05-15T08:08:17.571Z,23.54
2023-05-15T08:09:16.461Z,23.56
2023-05-15T08:10:17.451Z,23.56
2023-05-15T08:11:17.435Z,23.53
2023-05-15T08:12:17.439Z,23.54
2023-05-15T08:13:17.403Z,23.53
2023-05-15T08:14:16.466Z,23.52
2023-05-15T08:15:16.410Z,23.52
2023-05-15T08:16:17.502Z,23.52
2023-05-15T08:17:17.469Z,23.54
2023-05-15T08:18:17.514Z,23.50
2023-05-15T08:19:16.639Z,23.50
2023-05-15T08:20:17.606Z,23.50
2023-05-15T08:21:17.638Z,23.50
2023-05-15T08:22:16.678Z,23.48
2023-05-15T08:23:17.741Z,23.50
2023-05-15T08:24:17.851Z,23.49
2023-05-15T08:25:17.864Z,23.48
2023-05-15T08:26:17.912Z,23.49
2023-05-15T08:27:17.976Z,23.46
2023-05-15T08:28:17.030Z,23.46
2023-05-15T08:29:18.092Z,23.48
2023-05-15T08:30:17.165Z,23.46
2023-05-15T08:31:18.279Z,23.46
2023-05-15T08:32:18.285Z,23.46
2023-05-15T08:33:18.338Z,23.45
2023-05-15T08:34:18.421Z,23.46
2023-05-15T08:35:18.444Z,23.48
2023-05-15T08:36:18.592Z,23.45
2023-05-15T08:37:17.579Z,23.48
2023-05-15T08:38:18.644Z,23.49
2023-05-15T08:39:17.686Z,23.49
2023-05-15T08:40:21.326Z,23.50
2023-05-15T08:41:25.935Z,23.49
2023-05-15T08:42:18.723Z,23.50
2023-05-15T08:43:18.734Z,23.49
2023-05-15T08:44:17.714Z,23.53
2023-05-15T08:45:17.697Z,23.52
2023-05-15T08:46:17.781Z,23.54
2023-05-15T08:47:18.713Z,23.53
2023-05-15T08:48:18.782Z,23.54
2023-05-15T08:49:17.718Z,23.52
2023-05-15T08:50:18.683Z,23.54
2023-05-15T08:51:18.681Z,23.52
2023-05-15T08:52:17.661Z,23.52
2023-05-15T08:53:18.666Z,23.53
2023-05-15T08:54:18.662Z,23.52
2023-05-15T08:55:17.658Z,23.54
2023-05-15T08:56:17.673Z,23.53
2023-05-15T08:57:18.656Z,23.54
2023-05-15T08:58:17.639Z,23.52
2023-05-15T08:59:18.624Z,23.52
2023-05-15T09:00:17.620Z,23.53
2023-05-15T09:01:17.714Z,23.53
2023-05-15T09:02:17.621Z,23.53
2023-05-15T09:03:18.787Z,23.50
2023-05-15T09:04:18.606Z,23.54
2023-05-15T09:05:17.593Z,23.52
2023-05-15T09:06:18.616Z,23.53
2023-05-15T09:07:17.601Z,23.52
2023-05-15T09:08:18.603Z,23.52
2023-05-15T09:09:17.666Z,23.50
2023-05-15T09:10:18.819Z,23.52
2023-05-15T09:11:18.781Z,23.49
2023-05-15T09:12:17.874Z,23.50
2023-05-15T09:13:18.891Z,23.52
2023-05-15T09:14:19.465Z,23.50
2023-05-15T09:15:18.214Z,23.52
2023-05-15T09:16:19.093Z,23.54
2023-05-15T09:17:19.098Z,23.56
2023-05-15T09:18:18.166Z,23.54
2023-05-15T09:19:19.272Z,23.56
2023-05-15T09:20:18.395Z,23.57
2023-05-15T09:21:19.320Z,23.57
2023-05-15T09:22:19.357Z,23.59
2023-05-15T09:23:19.407Z,23.60
2023-05-15T09:24:18.452Z,23.59
2023-05-15T09:25:18.493Z,23.61
2023-05-15T09:26:19.560Z,23.61
2023-05-15T09:27:19.583Z,23.61
2023-05-15T09:28:18.635Z,23.63
2023-05-15T09:29:19.672Z,23.64
2023-05-15T09:30:19.719Z,23.64
2023-05-15T09:31:19.792Z,23.64
2023-05-15T09:32:19.931Z,23.64
2023-05-15T09:33:19.865Z,23.67
2023-05-15T09:34:19.861Z,23.64
2023-05-15T09:35:18.920Z,23.66
2023-05-15T09:36:19.965Z,23.66
2023-05-15T09:37:20.033Z,23.69
2023-05-15T09:38:20.099Z,23.70
2023-05-15T09:39:20.090Z,23.69
2023-05-15T09:40:20.142Z,23.71
2023-05-15T09:41:20.265Z,23.69
2023-05-15T09:42:20.217Z,23.69
2023-05-15T09:43:20.788Z,23.71
2023-05-15T09:44:21.592Z,23.69
2023-05-15T09:45:20.553Z,23.69
2023-05-15T09:46:21.185Z,23.69
2023-05-15T09:47:20.739Z,23.69
2023-05-15T09:48:19.704Z,23.70
2023-05-15T09:49:19.730Z,23.69
2023-05-15T09:50:19.758Z,23.67
2023-05-15T09:51:21.094Z,23.69
2023-05-15T09:52:19.861Z,23.64
2023-05-15T09:53:21.527Z,23.69
2023-05-15T09:54:20.945Z,23.69
2023-05-15T09:55:21.011Z,23.64
2023-05-15T09:56:21.058Z,23.61
2023-05-15T09:57:20.103Z,23.63
2023-05-15T09:58:21.153Z,23.63
2023-05-15T09:59:21.211Z,23.61
2023-05-15T10:00:21.287Z,23.63
2023-05-15T10:01:20.371Z,23.60
2023-05-15T10:02:20.345Z,23.60
2023-05-15T10:03:20.390Z,23.60
2023-05-15T10:04:20.450Z,23.59
2023-05-15T10:05:28.664Z,23.57
2023-05-15T10:06:21.489Z,23.60
2023-05-15T10:07:21.499Z,23.59
2023-05-15T10:08:21.484Z,23.57
2023-05-15T10:09:20.489Z,23.57
2023-05-15T10:10:20.482Z,23.60
2023-05-15T10:11:20.499Z,23.59
2023-05-15T10:12:21.453Z,23.60
2023-05-15T10:13:21.452Z,23.59
2023-05-15T10:14:21.447Z,23.61
2023-05-15T10:15:21.120Z,23.59
2023-05-15T10:16:20.484Z,23.60
2023-05-15T10:17:20.521Z,23.61
2023-05-15T10:18:21.420Z,23.60
2023-05-15T10:19:21.517Z,23.61
2023-05-15T10:20:20.399Z,23.64
2023-05-15T10:21:20.397Z,23.64
2023-05-15T10:22:21.384Z,23.63
2023-05-15T10:23:20.380Z,23.63
2023-05-15T10:24:20.385Z,23.63
2023-05-15T10:25:21.362Z,23.66
2023-05-15T10:26:20.376Z,23.67
2023-05-15T10:27:20.342Z,23.67
2023-05-15T10:28:20.343Z,23.67
2023-05-15T10:29:21.362Z,23.73
2023-05-15T10:30:21.313Z,23.70
2023-05-15T10:31:21.518Z,23.73
2023-05-15T10:32:20.332Z,23.77
2023-05-15T10:33:21.296Z,23.74
2023-05-15T10:34:21.361Z,23.76
2023-05-15T10:35:20.376Z,23.74
2023-05-15T10:36:21.442Z,23.76
2023-05-15T10:37:21.488Z,23.73
2023-05-15T10:38:20.521Z,23.74
2023-05-15T10:39:20.566Z,23.74
2023-05-15T10:40:20.602Z,23.73
2023-05-15T10:41:20.667Z,23.73
2023-05-15T10:42:21.726Z,23.73
2023-05-15T10:43:21.473Z,23.71
2023-05-15T10:44:20.817Z,23.70
2023-05-15T10:45:21.839Z,23.71
2023-05-15T10:46:21.157Z,23.70
2023-05-15T10:47:22.133Z,23.70
2023-05-15T10:48:21.983Z,23.69
2023-05-15T10:49:21.043Z,23.67
2023-05-15T10:50:21.084Z,23.69
2023-05-15T10:51:22.137Z,23.69
2023-05-15T10:52:21.184Z,23.70
2023-05-15T10:53:21.231Z,23.67
2023-05-15T10:54:21.302Z,23.67
2023-05-15T10:55:21.328Z,23.67
2023-05-15T10:56:22.423Z,23.66
2023-05-15T10:57:22.441Z,23.67
2023-05-15T10:58:22.475Z,23.67
2023-05-15T10:59:22.543Z,23.66
2023-05-15T11:00:22.682Z,23.66
2023-05-15T11:01:22.677Z,23.64
2023-05-15T11:02:22.692Z,23.66
2023-05-15T11:03:21.967Z,23.67
2023-05-15T11:04:22.867Z,23.63
2023-05-15T11:05:22.837Z,23.63
2023-05-15T11:06:22.904Z,23.63
2023-05-15T11:07:22.940Z,23.64
2023-05-15T11:08:22.990Z,23.63
2023-05-15T11:09:22.070Z,23.64
2023-05-15T11:10:23.252Z,23.63
2023-05-15T11:11:23.159Z,23.63
2023-05-15T11:12:22.223Z,23.61
2023-05-15T11:13:22.244Z,23.61
2023-05-15T11:14:23.298Z,23.60
2023-05-15T11:15:23.387Z,23.61
2023-05-15T11:16:22.443Z,23.61
2023-05-15T11:17:22.472Z,23.60
2023-05-15T11:18:22.526Z,23.61
2023-05-15T11:19:23.617Z,23.59
2023-05-15T11:20:23.752Z,23.60
2023-05-15T11:21:23.689Z,23.59
2023-05-15T11:22:23.744Z,23.60
2023-05-15T11:23:23.773Z,23.61
2023-05-15T11:24:22.847Z,23.60
2023-05-15T11:25:22.921Z,23.63
2023-05-15T11:26:22.934Z,23.64
2023-05-15T11:27:23.998Z,23.64
2023-05-15T11:28:24.086Z,23.61
2023-05-15T11:29:24.095Z,23.64
2023-05-15T11:30:23.265Z,23.64
2023-05-15T11:31:24.273Z,23.66
2023-05-15T11:32:23.282Z,23.67
2023-05-15T11:33:23.329Z,23.64
2023-05-15T11:34:23.372Z,23.64
2023-05-15T11:35:23.477Z,23.67
2023-05-15T11:36:24.529Z,23.63
2023-05-15T11:37:24.623Z,23.63
2023-05-15T11:38:24.652Z,23.61
2023-05-15T11:39:24.672Z,23.64
2023-05-15T11:40:24.995Z,23.61
2023-05-15T11:41:23.789Z,23.63
2023-05-15T11:42:24.859Z,23.63
2023-05-15T11:43:24.897Z,23.63
2023-05-15T11:44:23.971Z,23.60
2023-05-15T11:45:25.005Z,23.61
2023-05-15T11:46:24.104Z,23.61
2023-05-15T11:47:24.120Z,23.59
2023-05-15T11:48:24.194Z,23.60
2023-05-15T11:49:24.244Z,23.60
2023-05-15T11:50:25.554Z,23.59
2023-05-15T11:51:24.367Z,23.60
2023-05-15T11:52:25.402Z,23.59
2023-05-15T11:53:24.467Z,23.59
2023-05-15T11:54:24.529Z,23.59
2023-05-15T11:55:24.601Z,23.60
2023-05-15T11:56:25.650Z,23.59
2023-05-15T11:57:25.695Z,23.57
2023-05-15T11:58:25.768Z,23.56
2023-05-15T11:59:25.802Z,23.57
2023-05-15T12:00:26.106Z,23.53
2023-05-15T12:01:25.966Z,23.56
2023-05-15T12:02:25.024Z,23.54
2023-05-15T12:03:25.182Z,23.56
2023-05-15T12:04:26.295Z,23.54
2023-05-15T12:05:26.147Z,23.56
2023-05-15T12:06:25.206Z,23.56
2023-05-15T12:07:25.336Z,23.53
2023-05-15T12:08:26.395Z,23.57
2023-05-15T12:09:25.375Z,23.57
2023-05-15T12:10:25.698Z,23.54
2023-05-15T12:11:26.511Z,23.53
2023-05-15T12:12:26.563Z,23.54
2023-05-15T12:13:26.624Z,23.53
2023-05-15T12:14:26.686Z,23.53
2023-05-15T12:15:26.741Z,23.54
2023-05-15T12:16:26.876Z,23.53
2023-05-15T12:17:25.896Z,23.54
2023-05-15T12:18:25.926Z,23.53
2023-05-15T12:19:25.975Z,23.52
2023-05-15T12:20:27.201Z,23.52
2023-05-15T12:21:26.115Z,23.53
2023-05-15T12:22:26.155Z,23.50
2023-05-15T12:23:27.282Z,23.50
2023-05-15T12:24:26.278Z,23.50
2023-05-15T12:25:26.357Z,23.52
2023-05-15T12:26:27.430Z,23.48
2023-05-15T12:27:26.465Z,23.50
2023-05-15T12:28:27.520Z,23.49
2023-05-15T12:29:27.574Z,23.52
2023-05-15T12:30:27.691Z,23.50
2023-05-15T12:31:27.772Z,23.53
2023-05-15T12:32:26.809Z,23.52
2023-05-15T12:33:26.847Z,23.52
2023-05-15T12:34:27.909Z,23.52
2023-05-15T12:35:27.960Z,23.48
2023-05-15T12:36:26.955Z,23.50
2023-05-15T12:37:27.973Z,23.53
2023-05-15T12:38:26.996Z,23.54
2023-05-15T12:39:28.022Z,23.54
2023-05-15T12:40:28.082Z,23.52
2023-05-15T12:41:28.089Z,23.50
2023-05-15T12:42:28.147Z,23.49
2023-05-15T12:43:28.138Z,23.48
2023-05-15T12:44:27.203Z,23.50
2023-05-15T12:45:27.234Z,23.48
2023-05-15T12:46:28.399Z,23.53
2023-05-15T12:47:28.397Z,23.49
2023-05-15T12:48:28.376Z,23.49
2023-05-15T12:49:28.381Z,23.48
2023-05-15T12:50:27.828Z,23.49
2023-05-15T12:51:28.513Z,23.49
2023-05-15T12:52:27.742Z,23.46